Time,TemperatureF,DewpointF,PressureIn,WindDirection,WindDirectionDegrees,WindSpeedMPH,WindSpeedGustMPH,Humidity,HourlyPrecipIn,Conditions,Clouds,dailyrainin,SolarRadiationWatts/m^2,SoftwareType,DateUTC
2013-06-14 00:02:00,44.0,4.0,-100.00,WNW,288,4.0,6.0,19,0.00,,,0.00,0.000000,,2013-06-14 07:02:00,
2013-06-14 00:12:00,44.0,4.0,-100.00,WNW,288,4.0,6.0,19,0.00,,,0.00,0.000000,,2013-06-14 07:12:00,
2013-06-14 00:22:00,44.0,4.0,-100.00,WNW,288,4.0,6.0,19,0.00,,,0.00,0.000000,,2013-06-14 07:22:00,
2013-06-14 00:33:00,44.0,4.0,-100.00,WNW,288,4.0,6.0,19,0.00,,,0.00,0.000000,,2013-06-14 07:33:00,
2013-06-14 01:02:00,45.0,6.0,-100.00,WNW,286,3.0,5.0,20,0.00,,,0.00,0.000000,,2013-06-14 08:02:00,
2013-06-14 01:12:00,45.0,6.0,-100.00,WNW,286,3.0,5.0,20,0.00,,,0.00,0.000000,,2013-06-14 08:12:00,
2013-06-14 01:22:00,45.0,6.0,-100.00,WNW,286,3.0,5.0,20,0.00,,,0.00,0.000000,,2013-06-14 08:22:00,
2013-06-14 01:33:00,45.0,6.0,-100.00,WNW,286,3.0,5.0,20,0.00,,,0.00,0.000000,,2013-06-14 08:33:00,
2013-06-14 02:02:00,42.0,5.0,-100.00,WNW,289,5.0,6.0,21,0.00,,,0.00,0.000000,,2013-06-14 09:02:00,
2013-06-14 02:12:00,42.0,5.0,-100.00,WNW,289,5.0,6.0,21,0.00,,,0.00,0.000000,,2013-06-14 09:12:00,
2013-06-14 02:22:00,42.0,5.0,-100.00,WNW,289,5.0,6.0,21,0.00,,,0.00,0.000000,,2013-06-14 09:22:00,
2013-06-14 02:33:00,42.0,5.0,-100.00,WNW,289,5.0,6.0,21,0.00,,,0.00,0.000000,,2013-06-14 09:33:00,
2013-06-14 02:34:00,39.0,3.0,-100.00,WNW,292,0.0,6.0,22,0.00,,,0.00,0.000000,,2013-06-14 09:34:00,
2013-06-14 03:01:00,39.0,3.0,-100.00,WNW,292,0.0,6.0,22,0.00,,,0.00,0.000000,,2013-06-14 10:01:00,
2013-06-14 03:11:00,39.0,3.0,-100.00,WNW,292,0.0,6.0,22,0.00,,,0.00,0.000000,,2013-06-14 10:11:00,
2013-06-14 03:22:00,39.0,3.0,-100.00,WNW,292,0.0,6.0,22,0.00,,,0.00,0.000000,,2013-06-14 10:22:00,
2013-06-14 03:52:00,37.0,3.0,-100.00,WNW,289,1.0,4.0,23,0.00,,,0.00,0.000000,,2013-06-14 10:52:00,
2013-06-14 04:02:00,37.0,3.0,-100.00,WNW,289,1.0,4.0,23,0.00,,,0.00,0.000000,,2013-06-14 11:02:00,
2013-06-14 04:11:00,37.0,3.0,-100.00,WNW,289,1.0,4.0,23,0.00,,,0.00,0.000000,,2013-06-14 11:11:00,
2013-06-14 04:22:00,37.0,3.0,-100.00,WNW,289,1.0,4.0,23,0.00,,,0.00,0.000000,,2013-06-14 11:22:00,
2013-06-14 04:32:00,37.0,3.0,-100.00,WNW,289,1.0,4.0,23,0.00,,,0.00,0.000000,,2013-06-14 11:32:00,
2013-06-14 05:01:00,37.0,4.0,-100.00,WNW,290,1.0,4.0,24,0.00,,,0.00,0.000000,,2013-06-14 12:01:00,
2013-06-14 05:11:00,37.0,4.0,-100.00,WNW,290,1.0,4.0,24,0.00,,,0.00,0.000000,,2013-06-14 12:11:00,
2013-06-14 05:22:00,37.0,4.0,-100.00,WNW,290,1.0,4.0,24,0.00,,,0.00,0.000000,,2013-06-14 12:22:00,
2013-06-14 05:32:00,37.0,4.0,-100.00,WNW,290,1.0,4.0,24,0.00,,,0.00,0.000000,,2013-06-14 12:32:00,
2013-06-14 06:02:00,36.0,3.0,-100.00,WNW,290,1.0,4.0,24,0.00,,,0.00,0.000000,,2013-06-14 13:02:00,
2013-06-14 06:11:00,36.0,3.0,-100.00,WNW,290,1.0,4.0,24,0.00,,,0.00,0.000000,,2013-06-14 13:11:00,
2013-06-14 06:22:00,36.0,3.0,-100.00,WNW,290,1.0,4.0,24,0.00,,,0.00,0.000000,,2013-06-14 13:22:00,
2013-06-14 06:33:00,36.0,3.0,-100.00,WNW,290,1.0,4.0,24,0.00,,,0.00,0.000000,,2013-06-14 13:33:00,
2013-06-14 07:02:00,35.0,2.0,-100.00,WNW,290,0.0,4.0,24,0.00,,,0.00,11.000000,,2013-06-14 14:02:00,
2013-06-14 07:11:00,35.0,2.0,-100.00,WNW,290,0.0,4.0,24,0.00,,,0.00,11.000000,,2013-06-14 14:11:00,
2013-06-14 08:01:00,48.0,22.0,-100.00,NE,40,0.0,2.0,35,-99.99,,,0.00,86.000000,,2013-06-14 15:01:00,
2013-06-14 08:11:00,48.0,22.0,-100.00,NE,40,0.0,2.0,35,-99.99,,,0.00,86.000000,,2013-06-14 15:11:00,
2013-06-14 09:01:00,70.0,25.0,-100.00,ENE,58,1.0,5.0,18,-99.99,,,0.00,562.000000,,2013-06-14 16:01:00,
2013-06-14 09:11:00,70.0,25.0,-100.00,ENE,58,1.0,5.0,18,-99.99,,,0.00,562.000000,,2013-06-14 16:11:00,
2013-06-14 10:02:00,76.0,22.0,-100.00,WSW,251,1.0,8.0,13,0.00,,,0.00,807.000000,,2013-06-14 17:02:00,
2013-06-14 11:02:00,77.0,14.0,-100.00,South,171,4.0,10.0,9,0.00,,,0.00,1016.000000,,2013-06-14 18:02:00,
2013-06-14 11:11:00,77.0,14.0,-100.00,South,171,4.0,10.0,9,0.00,,,0.00,1016.000000,,2013-06-14 18:11:00,
2013-06-14 11:21:00,77.0,14.0,-100.00,South,171,4.0,10.0,9,0.00,,,0.00,1016.000000,,2013-06-14 18:21:00,
2013-06-14 11:32:00,77.0,14.0,-100.00,South,171,4.0,10.0,9,0.00,,,0.00,1016.000000,,2013-06-14 18:32:00,
2013-06-14 12:01:00,77.0,11.0,-100.00,East,96,4.0,11.0,8,0.00,,,0.00,1172.000000,,2013-06-14 19:01:00,
2013-06-14 12:11:00,77.0,11.0,-100.00,East,96,4.0,11.0,8,0.00,,,0.00,1172.000000,,2013-06-14 19:11:00,
2013-06-14 12:21:00,77.0,11.0,-100.00,East,96,4.0,11.0,8,0.00,,,0.00,1172.000000,,2013-06-14 19:21:00,
2013-06-14 12:32:00,77.0,11.0,-100.00,East,96,4.0,11.0,8,0.00,,,0.00,1172.000000,,2013-06-14 19:32:00,
2013-06-14 13:01:00,76.0,13.0,-100.00,ENE,61,6.0,13.0,9,0.00,,,0.00,1253.000000,,2013-06-14 20:01:00,
2013-06-14 13:11:00,76.0,13.0,-100.00,ENE,61,6.0,13.0,9,0.00,,,0.00,1253.000000,,2013-06-14 20:11:00,
2013-06-14 13:22:00,76.0,13.0,-100.00,ENE,61,6.0,13.0,9,0.00,,,0.00,1253.000000,,2013-06-14 20:22:00,
2013-06-14 13:33:00,76.0,13.0,-100.00,ENE,61,6.0,13.0,9,0.00,,,0.00,1253.000000,,2013-06-14 20:33:00,
2013-06-14 13:34:00,77.0,16.0,-100.00,ESE,103,5.0,13.0,10,0.00,,,0.00,1269.000000,,2013-06-14 20:34:00,
2013-06-14 14:02:00,77.0,16.0,-100.00,ESE,103,5.0,13.0,10,0.00,,,0.00,1269.000000,,2013-06-14 21:02:00,
2013-06-14 14:11:00,77.0,16.0,-100.00,ESE,103,5.0,13.0,10,0.00,,,0.00,1269.000000,,2013-06-14 21:11:00,
2013-06-14 14:22:00,77.0,16.0,-100.00,ESE,103,5.0,13.0,10,0.00,,,0.00,1269.000000,,2013-06-14 21:22:00,
2013-06-14 15:01:00,78.0,12.0,-100.00,ESE,120,6.0,12.0,8,0.00,,,0.00,1227.000000,,2013-06-14 22:01:00,
2013-06-14 15:11:00,78.0,12.0,-100.00,ESE,120,6.0,12.0,8,0.00,,,0.00,1227.000000,,2013-06-14 22:11:00,
2013-06-14 15:22:00,78.0,12.0,-100.00,ESE,120,6.0,12.0,8,0.00,,,0.00,1227.000000,,2013-06-14 22:22:00,
2013-06-14 15:33:00,78.0,12.0,-100.00,ESE,120,6.0,12.0,8,0.00,,,0.00,1227.000000,,2013-06-14 22:33:00,
2013-06-14 16:01:00,78.0,19.0,-100.00,NNE,28,6.0,12.0,11,0.00,,,0.00,1111.000000,,2013-06-14 23:01:00,
2013-06-14 16:11:00,78.0,19.0,-100.00,NNE,28,6.0,12.0,11,0.00,,,0.00,1111.000000,,2013-06-14 23:11:00,
2013-06-14 16:22:00,78.0,19.0,-100.00,NNE,28,6.0,12.0,11,0.00,,,0.00,1111.000000,,2013-06-14 23:22:00,
2013-06-14 16:33:00,78.0,19.0,-100.00,NNE,28,6.0,12.0,11,0.00,,,0.00,1111.000000,,2013-06-14 23:33:00,
2013-06-14 17:01:00,75.0,24.0,-100.00,North,354,4.0,12.0,15,0.00,,,0.00,931.000000,,2013-06-15 00:01:00,
2013-06-14 17:11:00,75.0,24.0,-100.00,North,354,4.0,12.0,15,0.00,,,0.00,931.000000,,2013-06-15 00:11:00,
2013-06-14 17:22:00,75.0,24.0,-100.00,North,354,4.0,12.0,15,0.00,,,0.00,931.000000,,2013-06-15 00:22:00,
2013-06-14 17:33:00,75.0,24.0,-100.00,North,354,4.0,12.0,15,0.00,,,0.00,931.000000,,2013-06-15 00:33:00,
2013-06-14 18:01:00,74.0,26.0,-100.00,ESE,107,4.0,13.0,17,0.00,,,0.00,700.000000,,2013-06-15 01:01:00,
2013-06-14 18:11:00,74.0,26.0,-100.00,ESE,107,4.0,13.0,17,0.00,,,0.00,700.000000,,2013-06-15 01:11:00,
2013-06-14 18:22:00,74.0,26.0,-100.00,ESE,107,4.0,13.0,17,0.00,,,0.00,700.000000,,2013-06-15 01:22:00,
2013-06-14 18:33:00,74.0,26.0,-100.00,ESE,107,4.0,13.0,17,0.00,,,0.00,700.000000,,2013-06-15 01:33:00,
2013-06-14 18:54:00,66.0,24.0,-100.00,NW,321,1.0,10.0,20,0.00,,,0.00,331.000000,,2013-06-15 01:54:00,
2013-06-14 19:02:00,66.0,24.0,-100.00,NW,321,1.0,10.0,20,0.00,,,0.00,331.000000,,2013-06-15 02:02:00,
2013-06-14 19:11:00,66.0,24.0,-100.00,NW,321,1.0,10.0,20,0.00,,,0.00,331.000000,,2013-06-15 02:11:00,
2013-06-14 19:22:00,66.0,24.0,-100.00,NW,321,1.0,10.0,20,0.00,,,0.00,331.000000,,2013-06-15 02:22:00,
2013-06-14 19:33:00,66.0,24.0,-100.00,NW,321,1.0,10.0,20,0.00,,,0.00,331.000000,,2013-06-15 02:33:00,
2013-06-14 20:01:00,63.0,24.0,-100.00,ESE,112,0.0,6.0,22,0.00,,,0.00,27.000000,,2013-06-15 03:01:00,
2013-06-14 20:11:00,63.0,24.0,-100.00,ESE,112,0.0,6.0,22,0.00,,,0.00,27.000000,,2013-06-15 03:11:00,
2013-06-14 20:23:00,63.0,24.0,-100.00,ESE,112,0.0,6.0,22,0.00,,,0.00,27.000000,,2013-06-15 03:23:00,
2013-06-14 20:32:00,63.0,24.0,-100.00,ESE,112,0.0,6.0,22,0.00,,,0.00,27.000000,,2013-06-15 03:32:00,
2013-06-14 21:22:00,56.0,14.0,-100.00,WNW,287,1.0,5.0,19,0.00,,,0.00,5.000000,,2013-06-15 04:22:00,
2013-06-14 21:33:00,56.0,14.0,-100.00,WNW,287,1.0,5.0,19,0.00,,,0.00,5.000000,,2013-06-15 04:33:00,